Aviation Digital Data Service (ADDS)

Output produced by TAFs form (0134 UTC 26 May 2015)
found at http://aviationweather.gov/adds/tafs/
 
KABQ 252342Z 2600/2624 30012G20KT P6SM VCSH BKN070 
     FM260400 VRB04KT P6SM FEW060 SCT120 
     FM261900 26008KT P6SM SCT060